Time;durP1;ratioP1;P1;durP2;ratioP2;P2;SDS_P1;SDS_P2;PMS_P1;PMS_P2;Temp;Humidity;BMP_temperature;BMP_pressure;BME280_temperature;BME280_humidity;BME280_pressure;Samples;Min_cycle;Max_cycle;Signal;HPM_P1;HPM_P2
2021/08/04 00:00:23;;;;;;;4.90;1.83;;;14.80;99.90;;;;;;5127742;28;20067;-83
2021/08/04 00:02:49;;;;;;;3.67;1.90;;;14.80;99.90;;;;;;5127641;28;20057;-84
2021/08/04 00:05:16;;;;;;;4.38;1.90;;;14.70;99.90;;;;;;5126564;28;20126;-84
2021/08/04 00:07:43;;;;;;;3.78;1.80;;;14.70;99.90;;;;;;5127616;28;20036;-84
2021/08/04 00:10:11;;;;;;;5.13;1.88;;;14.70;99.90;;;;;;5126605;28;20032;-84
2021/08/04 00:12:38;;;;;;;2.92;1.60;;;14.70;99.90;;;;;;5126895;28;20032;-84
2021/08/04 00:15:05;;;;;;;5.30;1.83;;;14.60;99.90;;;;;;5109885;28;20047;-83
2021/08/04 00:17:32;;;;;;;3.28;1.85;;;14.70;99.90;;;;;;5110388;28;20438;-83
2021/08/04 00:19:59;;;;;;;5.28;1.88;;;14.60;99.90;;;;;;5093198;28;20119;-82
2021/08/04 00:22:25;;;;;;;3.47;1.77;;;14.60;99.90;;;;;;5110280;28;20500;-83
2021/08/04 00:24:52;;;;;;;3.78;1.77;;;14.60;99.90;;;;;;5093585;28;20063;-84
2021/08/04 00:27:19;;;;;;;3.15;1.95;;;14.60;99.90;;;;;;5093189;28;20051;-82
2021/08/04 00:29:46;;;;;;;3.38;1.98;;;14.50;99.90;;;;;;5110772;28;20036;-84
2021/08/04 00:32:13;;;;;;;3.55;1.80;;;14.50;99.90;;;;;;5110080;28;20036;-83
2021/08/04 00:34:39;;;;;;;3.28;2.00;;;14.40;99.90;;;;;;5093571;28;20046;-84
2021/08/04 00:37:06;;;;;;;3.88;2.35;;;14.40;99.90;;;;;;5126458;28;20093;-83
2021/08/04 00:39:33;;;;;;;4.10;2.03;;;14.30;99.90;;;;;;5126886;28;20032;-83
2021/08/04 00:42:00;;;;;;;3.13;1.92;;;14.30;99.90;;;;;;5093278;28;20036;-84
2021/08/04 00:44:27;;;;;;;5.03;2.00;;;14.20;99.90;;;;;;5076456;28;20044;-84
2021/08/04 00:46:54;;;;;;;3.35;2.20;;;14.20;99.90;;;;;;5109940;28;20062;-83
2021/08/04 00:49:21;;;;;;;3.28;1.92;;;14.10;99.90;;;;;;5076445;28;20083;-83
2021/08/04 00:51:47;;;;;;;3.55;1.90;;;14.10;99.90;;;;;;5127949;28;20086;-84
2021/08/04 00:54:14;;;;;;;4.93;2.10;;;14.00;99.90;;;;;;5127452;28;20071;-83
2021/08/04 00:56:41;;;;;;;3.53;2.08;;;14.00;99.90;;;;;;5093108;28;20056;-83
2021/08/04 00:59:12;;;;;;;3.67;1.77;;;13.90;99.90;;;;;;5093051;28;20111;-83
2021/08/04 01:01:40;;;;;;;3.65;1.85;;;13.90;99.90;;;;;;5126644;28;20036;-84
2021/08/04 01:04:19;;;;;;;5.80;2.08;;;13.90;99.90;;;;;;5126354;28;20076;-83
2021/08/04 01:06:51;;;;;;;5.05;2.10;;;13.90;99.90;;;;;;5126753;28;20380;-84
2021/08/04 01:09:20;;;;;;;4.10;1.92;;;13.80;99.90;;;;;;5125971;28;20119;-83
2021/08/04 01:12:04;;;;;;;3.53;1.95;;;13.80;99.90;;;;;;5109860;28;20378;-84
2021/08/04 01:14:36;;;;;;;3.20;2.10;;;13.70;99.90;;;;;;5126177;28;20036;-84
2021/08/04 01:17:04;;;;;;;2.67;1.70;;;13.70;99.90;;;;;;5126869;28;20036;-83
2021/08/04 01:19:34;;;;;;;2.90;1.92;;;13.60;99.90;;;;;;5126276;28;20028;-83
2021/08/04 01:22:25;;;;;;;3.00;1.80;;;13.60;99.90;;;;;;5126590;28;20068;-83
2021/08/04 01:25:16;;;;;;;3.25;1.92;;;13.60;99.90;;;;;;5131651;28;20044;-83
2021/08/04 01:27:49;;;;;;;3.17;1.88;;;13.50;99.90;;;;;;5130506;28;20032;-84
2021/08/04 01:30:18;;;;;;;4.18;2.20;;;13.50;99.90;;;;;;5113149;28;20134;-83
2021/08/04 01:32:46;;;;;;;5.15;2.25;;;13.40;99.90;;;;;;5113931;28;20040;-83
2021/08/04 01:35:14;;;;;;;4.13;2.17;;;13.50;99.90;;;;;;5130956;28;20036;-83
2021/08/04 01:37:42;;;;;;;3.67;1.90;;;13.40;99.90;;;;;;5130203;28;20427;-84
2021/08/04 01:40:11;;;;;;;4.07;2.00;;;13.40;99.90;;;;;;5130111;28;20063;-83
2021/08/04 01:42:38;;;;;;;6.75;2.05;;;13.30;99.90;;;;;;5130013;28;20127;-83
2021/08/04 01:45:06;;;;;;;3.85;2.20;;;13.30;99.90;;;;;;5129791;28;20040;-83
2021/08/04 01:47:35;;;;;;;6.10;2.50;;;13.30;99.90;;;;;;5129759;28;20036;-83
2021/08/04 01:50:03;;;;;;;5.07;2.20;;;13.30;99.90;;;;;;5113409;28;20085;-83
2021/08/04 01:52:31;;;;;;;4.00;2.00;;;13.30;99.90;;;;;;5129191;28;20465;-83
2021/08/04 01:54:58;;;;;;;4.75;2.30;;;13.30;99.90;;;;;;5130006;28;20043;-84
2021/08/04 01:57:25;;;;;;;4.10;2.28;;;13.30;99.90;;;;;;5128836;28;20044;-83
2021/08/04 01:59:52;;;;;;;5.05;2.28;;;13.30;99.90;;;;;;5130035;28;20529;-84
2021/08/04 02:02:23;;;;;;;3.78;2.30;;;13.20;99.90;;;;;;5095620;28;20063;-83
2021/08/04 02:04:53;;;;;;;5.97;1.95;;;13.20;99.90;;;;;;5130987;28;20132;-83
2021/08/04 02:07:45;;;;;;;3.47;2.05;;;13.10;99.90;;;;;;5129143;28;20082;-83
2021/08/04 02:10:18;;;;;;;4.88;2.17;;;13.20;99.90;;;;;;5129855;28;20059;-83
2021/08/04 02:12:51;;;;;;;5.90;2.70;;;13.10;99.90;;;;;;5130723;28;20093;-83
2021/08/04 02:15:20;;;;;;;3.95;2.60;;;13.10;99.90;;;;;;5130127;28;20040;-83
2021/08/04 02:17:58;;;;;;;5.45;2.35;;;13.10;99.90;;;;;;5129533;28;20075;-83
2021/08/04 02:20:35;;;;;;;4.38;2.30;;;13.10;99.90;;;;;;5128932;28;20495;-83
2021/08/04 02:23:04;;;;;;;4.90;2.28;;;13.00;99.90;;;;;;5129258;28;20042;-83
2021/08/04 02:25:39;;;;;;;4.95;2.10;;;13.00;99.90;;;;;;5128683;28;20068;-84
2021/08/04 02:28:13;;;;;;;4.30;2.17;;;13.00;99.90;;;;;;5129170;28;20032;-83
2021/08/04 02:30:41;;;;;;;4.97;2.38;;;13.00;99.90;;;;;;5142979;28;20052;-84
2021/08/04 02:33:08;;;;;;;4.35;2.47;;;13.00;99.90;;;;;;5137081;28;20399;-83
2021/08/04 02:35:35;;;;;;;6.97;3.33;;;13.00;99.90;;;;;;5114118;28;20054;-83
2021/08/04 02:38:02;;;;;;;4.95;2.88;;;13.00;99.90;;;;;;5137518;28;20555;-83
2021/08/04 02:40:29;;;;;;;5.75;3.00;;;13.00;99.90;;;;;;5096783;28;20118;-83
2021/08/04 02:42:59;;;;;;;5.57;3.10;;;13.00;99.90;;;;;;5144223;28;20162;-83
2021/08/04 02:45:27;;;;;;;7.90;2.83;;;13.00;99.90;;;;;;5128479;28;20039;-83
2021/08/04 02:47:54;;;;;;;5.22;3.00;;;13.10;99.90;;;;;;5111835;28;20063;-84
2021/08/04 02:50:23;;;;;;;5.35;3.00;;;13.10;99.90;;;;;;5095053;28;20039;-83
2021/08/04 02:52:50;;;;;;;4.80;3.00;;;13.10;99.90;;;;;;5112095;28;20402;-83
2021/08/04 02:55:17;;;;;;;5.53;2.85;;;13.20;99.90;;;;;;5112106;28;20124;-83
2021/08/04 02:57:44;;;;;;;4.15;2.92;;;13.20;99.90;;;;;;5127884;28;20052;-83
2021/08/04 03:00:11;;;;;;;5.32;2.40;;;13.20;99.90;;;;;;5111683;28;20036;-83
2021/08/04 03:02:38;;;;;;;3.67;2.55;;;13.30;99.90;;;;;;5094440;28;20111;-83
2021/08/04 03:05:05;;;;;;;4.50;2.50;;;13.30;99.90;;;;;;5128299;28;20127;-83
2021/08/04 03:07:32;;;;;;;4.18;2.58;;;13.30;99.90;;;;;;5111028;28;20397;-83
2021/08/04 03:09:59;;;;;;;4.65;2.22;;;13.40;99.90;;;;;;5095123;28;20048;-84
2021/08/04 03:12:26;;;;;;;3.80;2.13;;;13.40;99.90;;;;;;5110835;28;20491;-83
2021/08/04 03:14:53;;;;;;;3.83;2.03;;;13.40;99.90;;;;;;5094996;28;20093;-83
2021/08/04 03:17:19;;;;;;;4.22;2.25;;;13.40;99.90;;;;;;5128214;28;20040;-83
2021/08/04 03:19:47;;;;;;;3.70;2.30;;;13.50;99.90;;;;;;5110775;28;20474;-83
2021/08/04 03:22:14;;;;;;;8.65;2.17;;;13.40;99.90;;;;;;5128218;28;20119;-83
2021/08/04 03:24:40;;;;;;;3.83;2.00;;;13.50;99.90;;;;;;5110746;28;20040;-83
2021/08/04 03:27:07;;;;;;;4.93;2.22;;;13.50;99.90;;;;;;5111413;28;20044;-83
2021/08/04 03:29:34;;;;;;;3.92;1.98;;;13.50;99.90;;;;;;5110825;28;20093;-83
2021/08/04 03:32:01;;;;;;;4.30;1.88;;;13.50;99.90;;;;;;5095594;28;20040;-83
2021/08/04 03:34:27;;;;;;;3.47;1.70;;;13.50;99.90;;;;;;5111001;28;20040;-83
2021/08/04 03:36:54;;;;;;;4.18;1.83;;;13.50;99.90;;;;;;5111123;28;20040;-84
2021/08/04 03:39:21;;;;;;;4.15;2.00;;;13.50;99.90;;;;;;5110841;28;20040;-82
2021/08/04 03:41:48;;;;;;;3.45;1.70;;;13.50;99.90;;;;;;5110392;28;20472;-82
2021/08/04 03:44:14;;;;;;;7.05;1.70;;;13.50;99.90;;;;;;5110949;28;20115;-83
2021/08/04 03:46:46;;;;;;;3.78;1.73;;;13.50;99.90;;;;;;5093329;28;20043;-83
2021/08/04 03:49:17;;;;;;;2.80;1.70;;;13.50;99.90;;;;;;5096011;28;20085;-83
2021/08/04 03:51:44;;;;;;;3.45;1.75;;;13.50;99.90;;;;;;5127279;28;20109;-83
2021/08/04 03:54:11;;;;;;;3.55;1.98;;;13.40;99.90;;;;;;5128541;28;20063;-83
2021/08/04 03:56:38;;;;;;;3.30;2.00;;;13.50;99.90;;;;;;5127182;28;20051;-83
2021/08/04 03:59:04;;;;;;;3.50;1.90;;;13.50;99.90;;;;;;5094191;28;20040;-83
2021/08/04 04:01:31;;;;;;;6.30;1.85;;;13.40;99.90;;;;;;5093435;28;20468;-82
2021/08/04 04:03:58;;;;;;;3.47;1.73;;;13.40;99.90;;;;;;5094491;28;20040;-83
2021/08/04 04:06:25;;;;;;;3.78;1.45;;;13.40;99.90;;;;;;5111018;28;20063;-83
2021/08/04 04:08:52;;;;;;;3.67;1.70;;;13.30;99.90;;;;;;5110067;28;20039;-83
2021/08/04 04:11:19;;;;;;;3.63;1.75;;;13.30;99.90;;;;;;5094792;28;20043;-83
2021/08/04 04:13:45;;;;;;;4.25;1.80;;;13.30;99.90;;;;;;5127168;28;20107;-84
2021/08/04 04:16:13;;;;;;;3.25;1.85;;;13.30;99.90;;;;;;5110344;28;20445;-84
2021/08/04 04:18:40;;;;;;;3.28;1.52;;;13.30;99.90;;;;;;5093311;28;20112;-84
2021/08/04 04:21:07;;;;;;;4.15;1.73;;;13.20;99.90;;;;;;5110312;28;20063;-83
2021/08/04 04:23:34;;;;;;;7.00;2.00;;;13.20;99.90;;;;;;5126353;28;20111;-83
2021/08/04 04:26:02;;;;;;;3.28;1.80;;;13.20;99.90;;;;;;5110129;28;20032;-83
2021/08/04 04:28:30;;;;;;;4.70;2.50;;;13.20;99.90;;;;;;5110543;28;20040;-83
2021/08/04 04:30:57;;;;;;;3.20;1.85;;;13.20;99.90;;;;;;5109831;28;20043;-83
2021/08/04 04:33:24;;;;;;;4.97;2.55;;;13.20;99.90;;;;;;5110253;28;20040;-83
2021/08/04 04:35:52;;;;;;;6.22;3.15;;;13.20;99.90;;;;;;5093609;28;20365;-83
2021/08/04 04:38:18;;;;;;;3.97;2.47;;;13.20;99.90;;;;;;5126798;28;20036;-83
2021/08/04 04:40:45;;;;;;;3.80;2.30;;;13.20;99.90;;;;;;5092727;28;20040;-83
2021/08/04 04:43:12;;;;;;;6.97;2.63;;;13.30;99.90;;;;;;5093336;28;20028;-84
2021/08/04 04:45:39;;;;;;;4.60;2.55;;;13.30;99.90;;;;;;5109371;28;20032;-83
2021/08/04 04:48:06;;;;;;;4.93;2.80;;;13.30;99.90;;;;;;5127906;28;20115;-84
2021/08/04 04:50:39;;;;;;;5.45;2.60;;;13.40;99.90;;;;;;5110421;28;20075;-83
2021/08/04 04:53:07;;;;;;;6.13;2.33;;;13.40;99.90;;;;;;5110412;28;20064;-84
2021/08/04 04:55:34;;;;;;;6.50;2.50;;;13.40;99.90;;;;;;5109730;28;20523;-83
2021/08/04 04:58:01;;;;;;;4.00;2.50;;;13.50;99.90;;;;;;5095602;28;20503;-83
2021/08/04 05:00:29;;;;;;;5.88;2.67;;;13.50;99.90;;;;;;5130982;28;20119;-83
2021/08/04 05:02:56;;;;;;;4.18;2.47;;;13.60;99.90;;;;;;5096929;28;20115;-84
2021/08/04 05:05:22;;;;;;;4.50;2.40;;;13.60;99.90;;;;;;5114533;28;20093;-82
2021/08/04 05:07:49;;;;;;;4.45;2.38;;;13.70;99.90;;;;;;5096706;28;20062;-83
2021/08/04 05:10:16;;;;;;;5.38;2.45;;;13.70;99.90;;;;;;5113978;28;20117;-83
2021/08/04 05:12:42;;;;;;;6.90;2.80;;;13.70;99.90;;;;;;5113623;28;20044;-82
2021/08/04 05:15:10;;;;;;;3.33;2.17;;;13.80;99.90;;;;;;5097165;28;20044;-82
2021/08/04 05:17:37;;;;;;;5.60;2.58;;;13.80;99.90;;;;;;5113644;28;20036;-83
2021/08/04 05:20:05;;;;;;;3.28;2.00;;;13.80;99.90;;;;;;5130135;28;20454;-83
2021/08/04 05:22:32;;;;;;;5.80;2.40;;;13.90;99.90;;;;;;5097225;28;20055;-83
2021/08/04 05:24:59;;;;;;;3.78;2.40;;;13.90;99.90;;;;;;5131058;28;20059;-82
2021/08/04 05:27:26;;;;;;;3.75;2.30;;;13.90;99.90;;;;;;5144369;28;20186;-83
2021/08/04 05:29:52;;;;;;;5.05;2.08;;;14.00;99.90;;;;;;5131002;28;20039;-82
2021/08/04 05:32:19;;;;;;;3.47;2.30;;;14.00;99.90;;;;;;5125462;28;20096;-83
2021/08/04 05:34:46;;;;;;;4.00;2.22;;;14.00;99.90;;;;;;5133222;28;20082;-82
2021/08/04 05:37:13;;;;;;;3.78;2.30;;;14.10;99.90;;;;;;5141959;28;20032;-83
2021/08/04 05:39:39;;;;;;;3.95;2.50;;;14.10;99.90;;;;;;5113771;28;20036;-83
2021/08/04 05:42:06;;;;;;;4.00;2.30;;;14.10;99.90;;;;;;5124511;28;20035;-83
2021/08/04 05:44:33;;;;;;;3.75;2.40;;;14.20;99.90;;;;;;5111448;28;20038;-83
2021/08/04 05:47:08;;;;;;;4.60;2.30;;;14.20;99.90;;;;;;5145527;28;20400;-82
2021/08/04 05:49:35;;;;;;;5.40;2.58;;;14.20;99.90;;;;;;5129742;28;20476;-83
2021/08/04 05:52:02;;;;;;;4.20;2.20;;;14.20;99.90;;;;;;5129534;28;20119;-83
2021/08/04 05:54:29;;;;;;;4.50;2.30;;;14.20;99.90;;;;;;5129931;28;20093;-83
2021/08/04 05:56:57;;;;;;;4.00;2.20;;;14.20;99.90;;;;;;5112386;28;20051;-83
2021/08/04 05:59:24;;;;;;;5.00;2.70;;;14.30;99.90;;;;;;5106877;28;20036;-83
2021/08/04 06:01:51;;;;;;;4.68;2.50;;;14.30;99.90;;;;;;5134824;28;20503;-82
2021/08/04 06:04:18;;;;;;;4.18;2.55;;;14.30;99.90;;;;;;5112929;28;20042;-83
2021/08/04 06:06:45;;;;;;;5.10;2.45;;;14.40;99.90;;;;;;5124469;28;20057;-83
2021/08/04 06:09:12;;;;;;;4.38;2.63;;;14.50;99.90;;;;;;5115045;28;20118;-82
2021/08/04 06:11:39;;;;;;;4.32;2.25;;;14.50;99.90;;;;;;5133049;28;20053;-82
2021/08/04 06:14:05;;;;;;;4.50;2.30;;;14.60;99.90;;;;;;5104066;28;20080;-82
2021/08/04 06:16:33;;;;;;;4.72;2.60;;;14.70;99.90;;;;;;5129557;28;20063;-83
2021/08/04 06:19:00;;;;;;;5.63;2.50;;;14.80;99.90;;;;;;5095719;28;20060;-83
2021/08/04 06:21:27;;;;;;;5.07;2.30;;;14.80;99.90;;;;;;5140252;28;20035;-82
2021/08/04 06:23:54;;;;;;;3.63;2.20;;;14.90;99.90;;;;;;5117504;28;20044;-81
2021/08/04 06:26:21;;;;;;;3.92;2.40;;;14.90;99.90;;;;;;5141078;28;20403;-83
2021/08/04 06:28:49;;;;;;;8.00;2.60;;;14.90;99.90;;;;;;5112764;28;20047;-82
2021/08/04 06:31:16;;;;;;;5.32;2.50;;;15.00;99.90;;;;;;5145107;28;20396;-83
2021/08/04 06:33:43;;;;;;;5.45;2.70;;;15.10;99.90;;;;;;5112769;28;20037;-84
2021/08/04 06:36:09;;;;;;;4.20;2.25;;;15.10;99.90;;;;;;5098263;28;20046;-83
2021/08/04 06:38:36;;;;;;;3.75;2.30;;;15.20;99.90;;;;;;5115797;28;20032;-83
2021/08/04 06:41:03;;;;;;;4.22;2.47;;;15.20;99.90;;;;;;5111624;28;20047;-85
2021/08/04 06:43:39;;;;;;;3.78;2.20;;;15.30;99.90;;;;;;5128754;28;20040;-83
2021/08/04 06:46:11;;;;;;;4.88;2.38;;;15.30;99.90;;;;;;5094923;28;20040;-84
2021/08/04 06:48:38;;;;;;;3.35;2.00;;;15.40;99.90;;;;;;5129105;28;20049;-83
2021/08/04 06:51:06;;;;;;;4.45;2.20;;;15.50;99.90;;;;;;5095604;28;20400;-84
2021/08/04 06:53:33;;;;;;;4.93;2.33;;;15.60;99.90;;;;;;5128988;28;20036;-84
2021/08/04 06:56:00;;;;;;;3.85;1.90;;;15.60;99.90;;;;;;5111220;28;20048;-73
2021/08/04 06:58:26;;;;;;;4.00;1.90;;;15.70;99.90;;;;;;5128006;28;20485;-73
2021/08/04 07:00:53;;;;;;;3.85;1.90;;;15.80;99.90;;;;;;5111214;28;20081;-72
2021/08/04 07:03:22;;;;;;;4.35;1.75;;;15.90;99.90;;;;;;5121622;28;20032;-73
2021/08/04 07:05:50;;;;;;;3.72;1.70;;;16.00;99.90;;;;;;5130735;28;20404;-73
2021/08/04 07:08:19;;;;;;;4.97;1.92;;;16.10;99.90;;;;;;5110703;28;20457;-72
2021/08/04 07:10:46;;;;;;;4.10;1.65;;;16.20;99.90;;;;;;5113028;28;20444;-71
2021/08/04 07:13:13;;;;;;;2.95;1.52;;;16.30;99.90;;;;;;5134924;28;20373;-73
2021/08/04 07:15:40;;;;;;;3.47;1.98;;;16.40;99.90;;;;;;5130731;28;20061;-74
2021/08/04 07:18:09;;;;;;;2.63;1.70;;;16.50;99.90;;;;;;5130599;28;20480;-71
2021/08/04 07:20:37;;;;;;;4.00;1.60;;;16.60;99.90;;;;;;5148326;28;20031;-74
2021/08/04 07:23:05;;;;;;;3.42;1.50;;;16.70;99.90;;;;;;5147711;28;20377;-85
2021/08/04 07:25:32;;;;;;;4.50;1.45;;;16.70;99.90;;;;;;5148646;28;20028;-80
2021/08/04 07:27:59;;;;;;;4.28;1.27;;;16.90;99.90;;;;;;5148517;28;20047;-79
2021/08/04 07:30:26;;;;;;;1.98;1.10;;;16.90;99.90;;;;;;5147387;28;20035;-71
2021/08/04 07:32:53;;;;;;;2.20;1.20;;;17.00;99.90;;;;;;5147857;28;20531;-76
2021/08/04 07:35:20;;;;;;;2.45;1.10;;;17.20;99.90;;;;;;5147452;28;20384;-71
2021/08/04 07:37:46;;;;;;;2.83;1.20;;;17.20;99.90;;;;;;5147899;28;20043;-70
2021/08/04 07:40:16;;;;;;;4.10;1.30;;;17.30;99.90;;;;;;5134380;28;20036;-72
2021/08/04 07:42:42;;;;;;;2.60;1.30;;;17.40;99.90;;;;;;5131024;28;20035;-72
2021/08/04 07:45:10;;;;;;;3.70;1.30;;;17.40;99.90;;;;;;5148020;28;20054;-72
2021/08/04 07:47:37;;;;;;;2.33;1.10;;;17.50;99.90;;;;;;5147608;28;20408;-71
2021/08/04 07:50:05;;;;;;;2.95;1.30;;;17.60;99.90;;;;;;5148408;28;20119;-73
2021/08/04 07:52:32;;;;;;;3.75;1.30;;;17.80;99.90;;;;;;5148413;28;20424;-71
2021/08/04 07:54:59;;;;;;;2.88;1.15;;;17.90;99.90;;;;;;5148640;28;20035;-71
2021/08/04 07:57:26;;;;;;;4.90;1.20;;;18.00;99.90;;;;;;5146444;28;20056;-72
2021/08/04 07:59:53;;;;;;;3.10;1.20;;;18.10;99.90;;;;;;5140297;28;20085;-71
2021/08/04 08:02:20;;;;;;;3.92;1.00;;;18.20;99.90;;;;;;5125907;28;20040;-74
2021/08/04 08:04:47;;;;;;;2.33;1.00;;;18.30;99.90;;;;;;5125866;28;20044;-72
2021/08/04 08:07:13;;;;;;;3.20;1.00;;;18.30;99.90;;;;;;5140779;28;20063;-71
2021/08/04 08:09:40;;;;;;;1.75;0.98;;;18.40;99.90;;;;;;5147263;28;20040;-72
2021/08/04 08:12:07;;;;;;;1.90;0.95;;;18.50;99.90;;;;;;5147407;28;20368;-71
2021/08/04 08:14:35;;;;;;;3.25;1.17;;;18.60;99.90;;;;;;5132401;28;20051;-81
2021/08/04 08:17:02;;;;;;;1.85;0.90;;;18.70;99.90;;;;;;5127542;28;20036;-82
2021/08/04 08:19:31;;;;;;;3.40;0.90;;;18.70;99.90;;;;;;5110360;28;20102;-80
2021/08/04 08:21:58;;;;;;;3.67;0.95;;;18.80;99.90;;;;;;5127312;28;20032;-80
2021/08/04 08:24:25;;;;;;;1.55;0.90;;;18.80;99.90;;;;;;5126365;28;20036;-81
2021/08/04 08:26:52;;;;;;;1.40;0.73;;;18.90;99.90;;;;;;5093545;28;20036;-80
2021/08/04 08:29:18;;;;;;;1.77;0.80;;;19.00;99.90;;;;;;5127146;28;20039;-80
2021/08/04 08:31:45;;;;;;;1.90;0.95;;;19.20;99.90;;;;;;5093200;28;20048;-81
2021/08/04 08:34:12;;;;;;;1.98;0.93;;;19.20;99.90;;;;;;5093163;28;20051;-80
2021/08/04 08:36:39;;;;;;;1.75;0.90;;;19.40;99.90;;;;;;5096817;28;20431;-80
2021/08/04 08:39:09;;;;;;;3.25;1.10;;;19.40;99.90;;;;;;5146463;28;20490;-81
2021/08/04 08:41:36;;;;;;;3.45;0.90;;;19.50;99.90;;;;;;5147487;28;20088;-81
2021/08/04 08:44:04;;;;;;;3.13;0.90;;;19.70;99.90;;;;;;5127036;28;20028;-83
2021/08/04 08:46:32;;;;;;;1.80;0.80;;;19.70;99.90;;;;;;5143414;28;20047;-81
2021/08/04 08:49:00;;;;;;;3.30;1.10;;;19.80;99.90;;;;;;5147554;28;20031;-81
2021/08/04 08:51:29;;;;;;;2.17;1.00;;;19.70;99.90;;;;;;5146358;28;20107;-83
2021/08/04 08:53:56;;;;;;;1.90;1.00;;;19.90;99.90;;;;;;5132971;28;20074;-80
2021/08/04 08:56:23;;;;;;;2.28;0.90;;;19.90;99.90;;;;;;5139538;28;20415;-81
2021/08/04 08:58:53;;;;;;;2.75;1.00;;;20.00;99.90;;;;;;5129596;28;20110;-81
2021/08/04 09:01:46;;;;;;;2.65;0.98;;;20.10;99.90;;;;;;5126983;28;20115;-81
2021/08/04 09:04:17;;;;;;;1.85;0.90;;;20.20;99.90;;;;;;5124474;28;20052;-81
2021/08/04 09:06:56;;;;;;;3.75;1.13;;;20.30;99.90;;;;;;5096337;28;20044;-82
2021/08/04 09:09:27;;;;;;;4.00;1.30;;;20.50;99.90;;;;;;5127200;28;20046;-80
2021/08/04 09:12:10;;;;;;;2.75;1.17;;;20.50;99.90;;;;;;5126606;28;20044;-81
2021/08/04 09:14:38;;;;;;;2.33;1.08;;;20.50;99.90;;;;;;5126549;28;20476;-80
2021/08/04 09:17:06;;;;;;;2.70;1.10;;;20.50;99.90;;;;;;5125929;28;20058;-80
2021/08/04 09:19:36;;;;;;;2.75;0.90;;;20.60;99.90;;;;;;5114868;28;20407;-82
2021/08/04 09:22:22;;;;;;;1.63;1.02;;;20.60;99.90;;;;;;5146992;28;20031;-82
2021/08/04 09:25:04;;;;;;;3.85;1.30;;;20.70;99.90;;;;;;5146762;28;20035;-82
2021/08/04 09:27:48;;;;;;;4.40;1.35;;;20.60;99.90;;;;;;5126522;28;20064;-81
2021/08/04 09:30:28;;;;;;;3.47;1.20;;;20.70;99.90;;;;;;5127245;28;20048;-81
2021/08/04 09:33:13;;;;;;;2.78;1.30;;;20.90;99.90;;;;;;5126629;28;20446;-81
2021/08/04 09:35:44;;;;;;;;;;;20.90;99.90;;;;;;5126887;28;20073;-81
2021/08/04 09:38:11;;;;;;;3.58;1.50;;;21.00;99.90;;;;;;5144004;28;19923;-81
2021/08/04 09:40:38;;;;;;;2.78;1.30;;;20.90;99.90;;;;;;5121769;28;20044;-81
2021/08/04 09:43:06;;;;;;;2.22;1.20;;;20.80;99.90;;;;;;5101014;28;20508;-83
2021/08/04 09:45:48;;;;;;;2.83;1.40;;;20.70;99.90;;;;;;5121135;28;20068;-82
2021/08/04 09:48:23;;;;;;;3.65;1.30;;;20.60;99.90;;;;;;5129830;28;20036;-81
2021/08/04 09:50:53;;;;;;;3.22;1.38;;;20.40;99.90;;;;;;5147678;28;20456;-81
2021/08/04 09:53:25;;;;;;;2.83;1.30;;;20.30;99.90;;;;;;5150038;28;20400;-82
2021/08/04 09:56:12;;;;;;;2.42;1.30;;;20.30;99.90;;;;;;5150431;28;20830;-83
2021/08/04 09:58:47;;;;;;;2.75;1.20;;;20.30;99.90;;;;;;5148650;28;20036;-82
2021/08/04 10:01:16;;;;;;;3.90;1.40;;;20.30;99.90;;;;;;5129411;28;20150;-81
2021/08/04 10:04:05;;;;;;;3.05;1.15;;;20.20;99.90;;;;;;5112708;28;20036;-80
2021/08/04 10:06:34;;;;;;;3.28;1.30;;;20.20;99.90;;;;;;5129252;28;20133;-80
2021/08/04 10:09:01;;;;;;;2.60;1.40;;;20.10;99.90;;;;;;5112400;28;20464;-81
2021/08/04 10:11:29;;;;;;;3.35;1.27;;;20.30;99.90;;;;;;5129230;28;20040;-78
2021/08/04 10:13:57;;;;;;;2.38;1.15;;;20.50;99.90;;;;;;5131442;28;20798;-80
2021/08/04 10:16:33;;;;;;;2.85;1.23;;;20.60;99.90;;;;;;5112089;28;20044;-80
2021/08/04 10:19:05;;;;;;;4.10;1.27;;;20.70;99.90;;;;;;5129715;28;20043;-84
2021/08/04 10:21:34;;;;;;;4.15;1.20;;;20.50;99.90;;;;;;5130041;28;20457;-82
2021/08/04 10:24:03;;;;;;;2.15;1.00;;;20.40;99.90;;;;;;5112565;28;20507;-79
2021/08/04 10:26:30;;;;;;;2.83;1.40;;;20.30;99.90;;;;;;5128466;28;20039;-83
2021/08/04 10:28:58;;;;;;;4.35;1.48;;;20.10;99.90;;;;;;5112260;28;20063;-82
2021/08/04 10:31:25;;;;;;;3.47;1.30;;;20.00;99.90;;;;;;5128549;28;20040;-82
2021/08/04 10:33:55;;;;;;;3.08;1.20;;;19.90;99.90;;;;;;5129941;28;20465;-82
2021/08/04 10:36:23;;;;;;;2.30;1.20;;;19.80;99.90;;;;;;5095450;28;20042;-82
2021/08/04 10:38:54;;;;;;;2.33;1.10;;;19.70;99.90;;;;;;5112082;28;20384;-82
2021/08/04 10:41:27;;;;;;;2.40;1.17;;;19.70;99.90;;;;;;5129740;28;20042;-82
2021/08/04 10:44:00;;;;;;;2.28;1.20;;;19.70;99.90;;;;;;5128838;28;20046;-82
2021/08/04 10:46:30;;;;;;;4.10;1.20;;;19.70;99.90;;;;;;5128189;28;20101;-82
2021/08/04 10:49:06;;;;;;;5.13;1.40;;;19.70;99.90;;;;;;5129272;28;20032;-81
2021/08/04 10:51:43;;;;;;;3.72;1.33;;;19.60;99.90;;;;;;5128787;28;20032;-82
2021/08/04 10:54:20;;;;;;;3.47;1.30;;;19.60;99.90;;;;;;5128530;28;20081;-82
2021/08/04 10:56:48;;;;;;;2.72;1.25;;;19.50;99.90;;;;;;5111416;28;20515;-82
2021/08/04 10:59:24;;;;;;;6.57;1.40;;;19.50;99.90;;;;;;5128558;28;20050;-82
2021/08/04 11:01:53;;;;;;;1.67;1.00;;;19.50;99.90;;;;;;5130071;28;20536;-81
2021/08/04 11:04:25;;;;;;;2.25;1.27;;;19.60;99.90;;;;;;5129697;28;20039;-82
2021/08/04 11:07:07;;;;;;;2.75;1.17;;;19.60;99.90;;;;;;5128372;28;20399;-82
2021/08/04 11:09:46;;;;;;;2.67;1.30;;;19.70;99.90;;;;;;5127844;28;20036;-82
2021/08/04 11:12:34;;;;;;;2.53;1.20;;;19.80;99.90;;;;;;5128429;28;20039;-82
2021/08/04 11:15:02;;;;;;;2.65;1.10;;;19.90;99.90;;;;;;5128290;28;20042;-82
2021/08/04 11:17:31;;;;;;;2.25;1.10;;;20.10;99.90;;;;;;5110888;28;20071;-82
2021/08/04 11:20:08;;;;;;;2.78;1.20;;;20.40;99.90;;;;;;5128318;28;20115;-82
2021/08/04 11:22:34;;;;;;;3.70;1.40;;;20.70;99.90;;;;;;5110830;28;20134;-81
2021/08/04 11:25:06;;;;;;;2.75;1.10;;;20.90;99.90;;;;;;5111145;28;20127;-81
2021/08/04 11:27:55;;;;;;;2.05;1.08;;;20.90;99.90;;;;;;5127802;28;20129;-82
2021/08/04 11:30:31;;;;;;;2.95;1.10;;;20.80;99.90;;;;;;5125163;28;20083;-82
2021/08/04 11:33:21;;;;;;;2.97;1.30;;;20.60;99.90;;;;;;5128417;28;20036;-82
2021/08/04 11:36:04;;;;;;;2.85;1.00;;;20.70;99.90;;;;;;5127686;28;20044;-82
2021/08/04 11:39:05;;;;;;;2.35;1.15;;;20.80;99.90;;;;;;5128673;28;20085;-82
2021/08/04 11:41:45;;;;;;;3.25;1.30;;;21.00;99.90;;;;;;5124410;28;20126;-81
2021/08/04 11:44:23;;;;;;;4.68;1.20;;;21.00;99.90;;;;;;5127766;28;20058;-82
2021/08/04 11:47:01;;;;;;;3.15;1.20;;;20.80;99.90;;;;;;5127191;28;20097;-81
2021/08/04 11:49:32;;;;;;;3.60;1.20;;;20.70;99.90;;;;;;5127205;28;20107;-82
2021/08/04 11:52:08;;;;;;;2.90;1.40;;;20.60;99.90;;;;;;5127672;28;20032;-81
2021/08/04 11:54:37;;;;;;;2.45;1.30;;;20.40;99.90;;;;;;5127048;28;20381;-82
2021/08/04 11:57:06;;;;;;;3.03;1.40;;;20.40;99.90;;;;;;5127411;28;20048;-82
2021/08/04 11:59:49;;;;;;;2.92;1.20;;;20.30;99.90;;;;;;5127313;28;20042;-82
2021/08/04 12:02:17;;;;;;;3.35;1.27;;;20.20;99.90;;;;;;5129039;28;20396;-82
2021/08/04 12:04:52;;;;;;;4.60;1.27;;;20.40;99.90;;;;;;5126909;28;20115;-82
2021/08/04 12:07:22;;;;;;;3.00;1.23;;;20.60;99.90;;;;;;5109984;28;20051;-81
2021/08/04 12:09:49;;;;;;;2.53;1.13;;;20.80;99.90;;;;;;5110460;28;20471;-82
2021/08/04 12:12:23;;;;;;;3.35;1.45;;;20.90;99.90;;;;;;5127276;28;20120;-81
2021/08/04 12:14:52;;;;;;;3.78;1.25;;;21.10;99.90;;;;;;5126638;28;20127;-82
2021/08/04 12:17:28;;;;;;;4.15;1.08;;;21.40;99.90;;;;;;5110462;28;20044;-82
2021/08/04 12:19:55;;;;;;;5.38;1.40;;;21.60;99.90;;;;;;5126812;28;20043;-82
2021/08/04 12:22:28;;;;;;;3.20;1.20;;;21.80;99.90;;;;;;5127096;28;20086;-82
2021/08/04 12:24:56;;;;;;;2.88;1.27;;;21.90;99.90;;;;;;5126693;28;20116;-82
2021/08/04 12:27:44;;;;;;;3.95;1.33;;;22.10;99.90;;;;;;5128214;28;20040;-82
2021/08/04 12:30:16;;;;;;;3.35;1.20;;;22.30;99.90;;;;;;5128141;28;20040;-82
2021/08/04 12:35:50;;;;;;;2.20;1.08;;;22.40;99.90;;;;;;5127718;28;20400;-82
2021/08/04 12:38:22;;;;;;;2.72;1.05;;;22.40;99.90;;;;;;5127058;28;20108;-82
2021/08/04 12:40:54;;;;;;;3.08;1.00;;;22.30;99.90;;;;;;5093212;28;20040;-81
2021/08/04 12:43:30;;;;;;;1.98;1.10;;;22.50;99.90;;;;;;5126907;28;20063;-82
2021/08/04 12:45:58;;;;;;;3.42;1.30;;;22.60;99.90;;;;;;5126401;28;20495;-82
2021/08/04 12:48:45;;;;;;;4.10;1.25;;;22.60;99.90;;;;;;5110086;28;20373;-82
2021/08/04 12:51:23;;;;;;;3.00;1.23;;;22.40;99.90;;;;;;5127269;28;20044;-82
2021/08/04 12:54:00;;;;;;;3.05;1.10;;;22.20;99.90;;;;;;5127971;28;20039;-82
2021/08/04 12:56:36;;;;;;;3.83;1.20;;;22.10;99.90;;;;;;5093673;28;20133;-82
2021/08/04 12:59:04;;;;;;;3.38;1.38;;;22.30;99.90;;;;;;5127088;28;20043;-81
2021/08/04 13:01:45;;;;;;;3.30;1.20;;;22.50;99.90;;;;;;5126983;28;20035;-82
2021/08/04 13:04:20;;;;;;;2.30;1.02;;;22.70;99.90;;;;;;5126981;28;20036;-82